Date,TemperatureHighF,TemperatureAvgF,TemperatureLowF,DewpointHighF,DewpointAvgF,DewpointLowF,HumidityHigh,HumidityAvg,HumidityLow,PressureMaxIn,PressureMinIn,WindSpeedMaxMPH,WindSpeedAvgMPH,GustSpeedMaxMPH,PrecipitationSumIn
2013-1-1,50.1,44.9,38.2,41.6,33.7,16.7,91,66,33,30.17,29.97,13,1,13,0.03
2013-1-2,41.7,38.2,32.4,37.7,27.6,15.6,93,67,42,30.28,30.02,13,2,13,0.00
2013-1-3,44.5,34.1,23.5,27.9,21.8,15.7,85,62,33,30.34,30.24,11,1,11,0.00
2013-1-4,43.2,35.2,26.7,23.1,20.4,18.1,72,55,40,30.39,30.29,15,3,15,0.00
2013-1-5,49.7,38.0,28.8,34.6,22.7,18.1,87,56,31,30.48,30.30,18,1,18,0.00
2013-1-6,49.5,41.2,27.2,34.7,30.3,24.9,92,67,47,30.31,30.14,14,2,14,0.01
2013-1-7,47.4,37.0,24.7,29.1,24.8,21.9,89,63,41,30.54,30.25,16,2,16,0.00
2013-1-8,53.7,33.2,18.9,35.5,26.6,16.5,93,79,49,30.56,30.45,9,0,9,0.00
2013-1-9,59.8,43.7,26.6,47.9,37.3,24.9,95,80,51,30.53,30.43,11,1,11,0.00
2013-1-10,53.7,47.4,38.3,35.9,32.0,29.2,73,56,45,30.55,30.50,9,1,9,0.00
2013-1-11,41.0,40.4,39.7,39.3,38.6,36.5,96,93,86,30.44,30.22,3,0,3,0.04
2013-1-12,72.8,52.7,38.8,59.6,48.8,37.8,97,88,62,30.25,30.16,5,0,5,0.00
2013-1-13,70.1,58.5,53.3,61.0,55.5,51.3,97,90,69,30.17,30.05,13,0,13,0.00
2013-1-14,58.2,54.7,47.0,57.4,52.8,44.9,97,93,82,30.30,30.07,14,1,14,0.60
2013-1-15,47.0,41.4,37.7,45.1,40.0,36.6,96,95,91,30.35,30.19,8,0,8,1.72
2013-1-16,49.4,41.2,37.2,46.0,39.6,36.1,97,94,81,30.20,30.03,15,1,15,0.38
2013-1-17,47.7,39.3,32.9,44.2,36.4,31.4,96,90,77,30.25,30.07,13,2,13,1.11
2013-1-18,40.0,33.2,23.6,32.5,23.8,17.3,93,70,42,30.61,30.24,20,2,20,0.04
2013-1-19,51.9,33.3,19.6,33.3,25.8,17.9,95,77,32,30.56,30.19,11,1,11,0.01
2013-1-20,55.2,43.6,25.9,33.0,27.3,22.0,94,55,32,30.20,30.05,23,3,23,0.00
2013-1-21,52.5,37.6,23.7,26.8,19.0,4.1,88,52,25,30.17,29.94,28,3,28,0.00
2013-1-22,31.2,23.6,18.5,7.9,-0.6,-4.8,52,34,25,30.39,30.07,20,4,20,0.00
2013-1-23,32.7,25.4,14.9,20.2,5.8,-3.4,72,44,25,30.45,30.14,16,2,16,0.00
2013-1-24,32.9,26.1,18.8,19.5,7.4,-0.6,64,46,30,30.63,30.09,26,4,26,0.00
2013-1-25,22.9,19.5,15.0,19.5,13.1,2.5,89,77,48,30.62,30.18,12,1,12,0.00
2013-1-26,39.7,30.5,18.9,25.8,20.9,16.2,93,69,53,30.52,30.17,15,2,15,0.09
2013-1-27,34.4,27.8,17.3,26.0,21.1,14.4,90,76,64,30.70,30.52,12,1,12,0.00
2013-1-28,52.4,37.6,30.0,43.2,34.1,25.5,95,88,67,30.57,30.26,5,0,5,0.16
2013-1-29,73.1,51.0,33.7,52.5,42.6,32.3,97,76,45,30.28,30.07,12,1,12,0.00
2013-1-30,64.8,58.4,46.1,61.5,56.0,44.2,97,92,83,30.08,29.39,22,3,22,3.36
2013-1-31,54.3,38.8,29.1,48.6,24.3,16.3,90,56,40,30.02,29.43,21,6,25,0.02
2013-2-1,36.6,24.8,16.6,30.9,10.1,1.0,86,55,38,30.49,29.89,38,4,38,0.00
2013-2-2,34.0,24.4,12.9,25.9,16.3,7.3,88,72,42,30.49,30.11,13,1,13,0.00
2013-2-3,40.2,33.9,27.1,27.1,22.8,16.6,91,65,52,30.12,29.93,25,4,25,0.00
2013-2-4,39.1,29.8,22.7,23.5,18.2,12.1,88,63,48,30.22,30.04,25,2,25,0.00
2013-2-5,52.4,37.7,25.1,37.6,29.7,22.0,92,75,51,30.05,29.98,22,2,22,0.00
2013-2-6,52.0,40.0,26.5,33.3,27.5,24.0,95,64,36,30.41,30.04,14,2,14,0.00
2013-2-7,39.2,35.6,28.0,31.3,28.9,24.2,94,77,69,30.47,30.21,8,1,8,0.02
2013-2-8,51.3,38.2,32.1,42.0,31.7,23.9,95,79,57,30.21,29.91,31,3,31,0.52
2013-2-9,47.8,35.9,24.9,24.5,18.5,14.5,81,51,27,30.45,30.14,30,4,30,0.00
2013-2-10,46.9,33.8,20.9,34.8,22.3,16.3,93,66,37,30.59,30.31,10,1,10,0.06
2013-2-11,61.6,46.8,36.0,49.9,38.6,21.1,96,77,28,30.32,29.94,21,2,21,0.04
2013-2-12,57.9,47.7,40.0,32.7,24.8,18.1,69,42,25,30.11,29.97,25,4,25,0.00
2013-2-13,40.7,39.7,39.1,33.6,31.3,29.0,77,72,66,30.01,29.91,2,0,2,0.00
2013-2-14,51.1,40.9,27.8,30.6,27.6,24.4,90,62,37,30.13,30.03,11,1,11,0.00
2013-2-15,58.9,40.2,23.5,38.8,30.0,21.5,94,71,31,30.17,29.99,19,2,19,0.00
2013-2-16,39.1,34.9,27.4,29.0,20.4,11.9,67,55,43,30.09,29.93,19,3,19,0.00
2013-2-17,30.6,24.8,20.0,18.9,6.0,2.2,74,45,31,30.36,30.00,25,5,25,0.00
2013-2-18,51.6,30.9,12.9,23.9,16.3,7.8,86,59,28,30.49,30.27,11,1,11,0.00
2013-2-19,54.9,39.3,26.9,40.3,26.6,13.6,91,65,29,30.27,29.87,21,3,21,0.01
2013-2-20,44.4,35.7,30.5,16.2,11.8,9.0,49,37,24,30.26,30.03,24,5,24,0.00
2013-2-21,49.0,36.3,23.1,23.7,15.5,11.5,68,44,26,30.38,30.21,16,2,16,0.00
2013-2-22,38.0,34.5,30.2,29.4,24.3,17.8,81,67,44,30.44,30.24,14,1,14,0.01
2013-2-23,52.9,40.0,33.2,42.2,34.7,28.4,94,82,64,30.25,29.89,8,0,8,0.02
2013-2-24,54.9,45.2,33.8,39.1,27.9,19.9,96,54,28,30.16,29.88,19,3,19,0.00
2013-2-25,41.4,31.9,25.1,25.6,22.2,20.1,85,69,45,30.31,30.15,8,1,8,0.00
2013-2-26,40.9,35.0,25.5,39.6,31.0,21.3,96,86,64,30.29,29.71,12,1,12,0.82
2013-2-27,51.6,43.9,36.9,38.8,34.3,31.1,96,71,50,29.84,29.67,18,3,18,0.01
2013-2-28,42.7,38.9,36.9,32.2,26.8,23.9,71,62,50,29.92,29.76,11,3,19,0.00
2013-3-1,40.6,37.7,34.4,28.0,25.1,21.6,77,60,52,30.00,29.88,15,2,15,0.00
2013-3-2,36.4,33.7,30.7,23.4,19.8,16.8,62,56,51,30.02,29.94,16,3,16,0.00
2013-3-3,37.1,30.7,27.1,18.8,16.1,10.8,62,54,44,30.09,29.97,25,5,25,0.00
2013-3-4,48.1,33.8,25.7,20.5,12.4,7.5,71,43,20,30.20,30.08,20,3,20,0.00
2013-3-5,49.2,37.9,29.1,35.1,30.1,18.8,94,75,47,30.17,29.71,10,1,11,0.69
2013-3-6,42.4,36.3,32.4,32.4,29.3,27.1,95,76,62,30.17,29.69,33,5,33,0.27
2013-3-7,43.2,39.1,36.1,28.8,26.7,23.2,69,61,50,30.34,30.16,23,4,23,0.00
2013-3-8,50.4,41.7,36.7,26.6,24.4,20.9,64,51,36,30.42,30.28,25,4,25,0.00
2013-3-9,60.9,45.2,33.2,32.3,27.5,24.0,81,52,28,30.44,30.32,14,2,14,0.00
2013-3-10,63.8,45.8,27.7,36.3,30.6,24.4,89,60,31,30.40,30.26,11,1,11,0.00
2013-3-11,59.3,46.4,34.0,51.4,37.7,28.7,85,73,43,30.29,29.95,14,1,14,0.00
2013-3-12,58.6,51.5,38.0,52.8,42.1,29.0,96,72,47,30.07,29.78,16,3,16,0.78
2013-3-13,46.4,36.2,31.4,29.6,23.5,15.8,88,61,38,30.25,30.04,22,4,22,0.00
2013-3-14,46.9,36.1,28.7,20.5,16.5,13.0,63,46,28,30.34,30.22,30,5,30,0.00
2013-3-15,63.7,45.2,23.0,36.3,26.9,15.1,84,51,34,30.26,29.93,15,2,15,0.00
2013-3-16,76.5,55.0,34.8,52.3,43.1,31.0,95,68,35,29.93,29.64,24,2,24,0.05
2013-3-17,58.1,41.9,35.4,48.4,39.3,33.8,94,91,70,30.29,29.89,9,1,9,0.60
2013-3-18,35.4,33.2,31.8,33.8,31.7,30.3,95,94,92,30.33,30.00,9,1,9,0.28
2013-3-19,59.4,45.2,32.0,41.8,23.6,0.3,97,53,15,30.12,29.89,30,5,30,0.00
2013-3-20,54.1,41.6,25.5,25.0,13.8,2.5,80,35,17,30.15,29.86,17,3,17,0.00
2013-3-21,40.2,31.2,25.8,26.6,13.4,7.2,67,48,35,30.09,29.86,23,5,23,0.00
2013-3-22,28.7,25.7,23.6,20.2,13.2,9.0,76,59,50,30.12,30.08,11,2,13,0.00
2013-3-23,56.4,39.6,24.8,29.4,23.1,16.9,82,56,26,30.15,29.99,11,1,11,0.00
2013-3-24,41.6,34.5,30.2,31.7,27.7,22.0,94,78,46,30.04,29.68,9,1,12,0.17
2013-3-25,42.2,35.0,28.4,35.1,27.3,22.3,96,75,47,29.86,29.64,22,3,22,0.59
2013-3-26,44.1,39.1,35.5,28.6,25.7,23.0,66,59,44,30.20,29.85,17,4,17,0.00
2013-3-27,43.9,38.1,30.8,27.6,24.2,21.7,76,57,44,30.32,30.20,18,4,19,0.00
2013-3-28,49.9,41.0,30.8,28.0,24.2,21.1,79,52,36,30.37,30.28,19,4,19,0.00
2013-3-29,57.7,41.4,27.0,31.6,25.9,18.8,88,60,25,30.41,30.25,14,2,14,0.00
2013-3-30,62.7,44.4,26.8,34.6,29.6,23.9,91,62,28,30.34,30.15,14,1,14,0.00
2013-3-31,59.7,47.4,41.2,52.0,42.4,32.4,95,83,66,30.16,29.84,10,0,10,0.30
2013-4-1,61.9,50.6,35.3,45.0,37.7,26.9,95,63,45,30.09,29.90,20,4,21,0.00
2013-4-2,52.5,40.9,26.0,29.0,19.9,9.7,88,49,19,30.26,30.09,16,3,16,0.00
2013-4-3,54.6,41.0,25.4,25.5,16.6,7.8,80,42,16,30.43,30.26,16,3,17,0.00
2013-4-4,42.7,35.2,29.0,31.8,22.8,12.4,95,63,30,30.49,30.10,11,1,11,0.34
2013-4-5,63.6,45.9,32.9,42.6,34.3,27.4,96,70,26,30.12,29.98,15,2,15,0.40
2013-4-6,61.3,49.0,32.8,36.2,30.8,23.8,89,53,29,30.35,30.12,11,2,11,0.00
2013-4-7,71.5,52.7,33.7,45.8,38.9,28.6,92,62,37,30.32,30.10,16,2,16,0.00
2013-4-8,78.6,59.3,39.7,52.4,45.8,37.8,95,66,31,30.19,30.05,19,2,19,0.00
2013-4-9,84.9,66.3,48.1,57.1,51.1,45.3,93,63,32,30.20,30.05,16,2,16,0.00
2013-4-10,90.0,71.1,52.0,59.3,53.9,48.2,92,60,24,30.10,29.92,17,2,17,0.00
2013-4-11,72.3,62.9,55.7,59.8,55.5,52.2,88,77,64,29.95,29.77,9,0,9,0.00
2013-4-12,76.7,67.1,59.8,64.9,54.0,36.0,96,68,27,29.83,29.65,21,3,21,1.00
2013-4-13,73.5,60.6,47.1,44.2,34.8,26.8,72,40,20,30.05,29.81,31,3,31,0.00
2013-4-14,76.7,60.2,38.4,48.6,39.5,34.6,89,52,25,30.16,30.04,16,2,16,0.00
2013-4-15,64.7,57.3,52.3,54.0,51.9,44.5,94,83,50,30.31,30.09,10,1,11,0.29
2013-4-16,76.1,62.7,56.1,63.7,57.2,53.1,96,83,58,30.37,30.21,11,1,11,0.01
2013-4-17,80.0,66.0,54.4,63.6,58.5,53.0,97,79,51,30.27,30.15,10,1,10,0.00
2013-4-18,76.6,67.2,57.6,63.5,59.3,55.4,95,77,52,30.21,30.03,16,2,16,0.00
2013-4-19,70.8,65.3,51.9,65.2,59.0,39.1,94,80,61,30.03,29.67,21,3,21,0.66
2013-4-20,60.4,50.1,40.1,40.4,31.1,24.2,81,50,26,30.38,29.89,20,3,20,0.00
2013-4-21,57.9,47.3,33.6,39.2,32.5,23.5,87,59,37,30.61,30.38,14,1,14,0.00
2013-4-22,60.7,47.5,31.2,37.6,32.2,25.8,94,60,27,30.59,30.38,15,1,15,0.01
2013-4-23,67.0,55.4,46.3,49.3,43.5,37.1,89,65,48,30.41,30.16,10,1,10,0.00
2013-4-24,74.3,59.5,41.9,57.9,49.7,40.6,97,73,47,30.19,29.95,25,3,25,0.00
2013-4-25,67.8,53.0,41.1,46.4,32.5,19.1,75,50,17,30.39,30.11,19,3,19,0.00
2013-4-26,67.0,51.5,33.7,43.5,36.4,31.2,93,61,30,30.53,30.39,11,1,11,0.00
2013-4-27,68.2,56.5,45.5,51.6,45.5,40.0,87,69,40,30.45,30.32,8,1,8,0.00
2013-4-28,55.0,52.9,51.4,53.2,50.7,49.0,95,92,85,30.32,30.13,11,1,11,0.15
2013-4-29,67.4,56.3,50.2,58.0,52.6,48.8,96,88,68,30.18,30.05,5,0,9,0.14
2013-4-30,70.0,59.5,53.7,59.3,55.4,52.6,96,87,66,30.29,30.11,13,0,13,0.11
2013-5-1,70.8,60.3,54.6,57.5,51.6,42.6,93,75,41,30.43,30.28,18,1,18,0.00
2013-5-2,70.2,59.7,48.0,52.5,46.0,39.5,87,61,40,30.44,30.32,13,1,13,0.00
2013-5-3,65.0,54.2,42.5,52.7,46.8,40.6,96,77,55,30.40,30.28,14,1,14,0.00
2013-5-4,61.7,52.9,46.0,49.4,44.8,40.6,87,74,56,30.33,30.19,15,2,15,0.00
2013-5-5,56.3,51.9,45.1,50.3,43.9,33.3,91,75,60,30.23,30.09,14,2,14,0.06
2013-5-6,56.8,53.8,51.0,55.4,52.0,48.8,96,94,85,30.14,29.94,12,2,12,1.62
2013-5-7,62.1,55.1,48.4,55.8,53.0,47.2,97,93,73,30.01,29.92,12,1,12,0.88
2013-5-8,61.3,52.9,46.3,56.2,51.2,45.0,97,94,81,30.08,30.00,7,0,7,0.44
2013-5-9,79.6,60.4,42.8,59.2,50.9,41.7,98,75,37,30.12,30.04,12,1,12,0.03
2013-5-10,82.0,65.1,50.2,64.0,56.4,48.9,97,77,45,30.12,29.96,23,2,23,0.17
2013-5-11,77.0,64.3,58.9,64.9,60.3,57.7,97,88,59,30.00,29.81,20,1,20,0.52
2013-5-12,62.5,55.2,40.8,57.7,40.8,29.6,96,63,31,30.13,29.86,20,2,20,0.00
2013-5-13,60.9,48.4,34.9,41.7,33.9,26.5,95,62,29,30.27,30.13,16,2,16,0.00
2013-5-14,70.3,52.0,32.2,48.2,38.9,30.7,96,66,28,30.32,30.10,11,1,11,0.00
2013-5-15,49.9,49.0,48.2,47.4,46.4,45.2,92,91,89,30.11,30.07,0,0,0,0.00
2013-5-19,65.5,65.4,65.3,64.6,64.5,64.4,97,97,97,30.15,30.14,0,0,2,0.54
2013-5-20,77.5,68.8,64.3,70.8,66.1,62.8,98,91,74,30.17,30.05,10,0,10,0.25
2013-5-21,87.2,73.8,64.6,71.8,67.0,63.4,97,82,50,30.08,29.94,8,0,8,0.02
2013-5-22,83.5,69.7,59.0,71.5,65.4,57.9,98,87,62,30.02,29.90,24,1,24,0.14
2013-5-23,77.4,67.9,61.3,70.0,64.6,60.2,97,90,74,29.98,29.83,21,1,21,0.13
2013-5-24,64.0,57.2,46.8,60.0,45.8,33.9,96,68,40,30.26,29.87,21,3,21,0.01
2013-5-25,67.9,55.6,38.7,41.0,34.7,25.6,90,50,21,30.34,30.23,19,2,19,0.00
2013-5-26,74.4,59.5,46.3,47.6,41.5,34.9,88,55,26,30.33,30.21,12,1,12,0.00
2013-5-27,74.4,59.4,42.0,57.7,48.2,39.6,94,69,41,30.36,30.22,8,0,8,0.00
2013-5-28,83.4,69.2,53.5,68.0,60.3,51.9,96,75,53,30.27,30.14,14,1,14,0.00
2013-5-29,86.0,71.9,56.4,69.0,62.5,55.0,97,75,47,30.24,30.16,11,1,11,0.00
2013-5-30,85.9,71.3,55.6,68.8,62.6,54.2,97,77,47,30.29,30.20,13,1,13,0.00
2013-5-31,85.6,71.5,56.1,69.0,62.6,55.0,97,76,52,30.25,30.12,13,1,13,0.00
2013-6-1,86.1,72.7,58.1,71.2,63.5,56.7,97,75,50,30.15,30.01,14,1,14,0.00
2013-6-2,75.4,67.9,61.1,70.0,65.4,59.1,97,92,81,30.04,29.94,10,0,10,0.40
2013-6-3,80.7,70.3,61.1,68.8,64.2,58.7,98,83,56,30.02,29.91,14,1,14,0.11
2013-6-4,78.3,67.6,54.8,64.5,59.4,53.4,97,77,50,30.17,30.02,9,1,9,0.00
2013-6-5,74.5,66.2,56.9,65.5,61.3,54.6,96,85,69,30.21,30.09,10,0,10,0.02
2013-6-6,66.9,63.3,59.6,65.7,62.1,58.4,97,96,92,30.10,29.88,6,0,6,2.29
2013-6-7,73.3,68.1,62.7,69.2,65.9,61.2,98,93,83,29.89,29.67,8,0,11,0.21
2013-6-8,81.7,68.6,59.8,68.2,62.1,58.7,97,82,47,30.15,29.86,8,0,8,0.08
2013-6-9,84.8,72.8,61.5,71.9,66.3,60.3,98,82,52,30.21,30.09,17,1,17,0.33
2013-6-10,80.3,70.7,65.1,73.5,68.2,63.8,98,92,72,30.12,29.88,15,1,15,0.24
2013-6-11,82.0,70.8,62.4,68.3,63.9,61.5,98,81,54,29.99,29.91,15,1,15,0.16
2013-6-12,89.8,78.8,62.2,75.1,69.7,61.0,97,76,56,30.00,29.89,10,1,10,0.11
2013-6-13,89.3,75.3,65.0,73.3,67.0,55.6,97,76,53,29.89,29.61,20,2,20,0.27
2013-6-14,77.2,67.9,58.2,63.0,56.4,51.9,92,68,50,30.09,29.80,13,2,13,0.00
2013-6-15,83.7,67.7,53.4,65.9,58.1,52.0,97,75,40,30.19,30.07,12,1,12,0.00
2013-6-16,85.2,71.6,56.7,72.2,63.6,55.6,97,78,51,30.13,30.01,12,1,12,0.00
2013-6-17,84.3,73.5,65.9,72.7,68.0,64.7,97,84,64,30.07,29.95,10,0,10,0.10
2013-6-18,73.6,69.4,62.5,70.3,66.6,60.7,97,91,78,30.00,29.85,5,1,9,0.04
2013-6-19,79.4,68.0,57.9,69.6,63.2,56.8,98,86,63,30.20,29.96,5,0,9,0.04
2013-6-20,78.3,69.5,63.5,67.9,64.8,62.0,97,86,64,30.32,30.20,8,0,8,0.01
2013-6-21,81.8,70.5,56.9,68.6,61.9,55.5,96,76,54,30.35,30.25,9,0,9,0.01
2013-6-22,83.9,70.7,56.0,70.0,63.7,54.3,96,80,57,30.32,30.18,10,0,10,0.00
2013-6-23,86.6,75.3,64.9,73.8,68.6,63.4,97,81,54,30.25,30.14,8,1,8,0.00
2013-6-24,87.1,75.1,64.1,73.6,68.5,62.9,98,82,54,30.23,30.10,9,0,11,0.00
2013-6-25,87.9,75.9,64.2,74.5,69.2,62.9,98,81,56,30.14,30.01,11,0,11,0.00
2013-6-26,88.8,73.1,64.5,76.1,68.5,63.2,97,87,58,30.03,29.92,30,0,30,0.49
2013-6-27,83.0,72.0,66.0,73.4,68.1,65.2,98,88,65,29.95,29.75,12,1,12,0.05
2013-6-28,88.0,77.1,65.2,73.0,67.2,59.3,97,74,45,29.78,29.56,16,1,16,0.00
2013-6-29,84.2,73.0,61.6,71.2,65.9,59.9,96,80,55,29.76,29.62,13,1,13,0.11
2013-6-30,85.2,73.3,66.4,73.8,69.0,65.3,98,87,64,29.90,29.74,10,0,10,0.15
2013-7-1,81.8,73.7,68.4,71.8,69.1,67.1,96,86,68,30.01,29.87,9,1,9,0.00
2013-7-2,74.9,71.5,69.7,71.9,69.7,68.3,97,94,88,30.22,30.01,11,0,11,1.15
2013-7-3,75.4,71.1,69.3,72.6,70.1,68.5,98,97,90,30.28,30.17,5,0,5,1.62
2013-7-4,84.3,76.0,69.1,75.8,72.3,68.0,97,89,68,30.31,30.22,13,1,13,1.78
2013-7-5,84.3,75.7,69.3,75.4,71.6,68.3,98,88,70,30.31,30.21,11,1,11,0.00
2013-7-6,85.9,76.2,68.5,74.0,70.7,67.6,98,85,58,30.28,30.15,10,1,10,0.04
2013-7-7,84.1,73.5,68.1,75.2,70.3,67.1,98,90,71,30.20,30.11,13,1,13,0.43
2013-7-8,84.7,74.3,64.9,74.4,68.7,64.0,98,84,57,30.22,30.13,8,0,8,0.03
2013-7-9,87.4,76.5,68.0,75.5,70.7,67.0,98,84,56,30.19,30.08,7,0,7,0.00
2013-7-10,85.8,74.9,69.5,77.0,71.6,67.6,97,90,69,30.12,29.98,14,0,14,1.36
2013-7-11,83.4,73.9,67.2,75.8,70.8,65.0,98,91,71,30.00,29.92,4,0,7,0.56
2013-7-12,75.3,69.3,65.5,67.8,65.2,63.8,97,87,73,30.12,29.93,9,1,9,0.24
2013-7-13,78.3,71.5,66.7,72.1,68.2,64.0,97,89,78,30.26,30.10,10,0,10,0.30
2013-7-14,85.7,76.5,70.1,74.6,71.1,68.9,96,84,63,30.38,30.26,12,1,12,0.02
2013-7-15,89.3,77.8,67.7,76.9,71.3,66.8,98,82,57,30.39,30.29,6,0,6,0.00
2013-7-16,92.4,77.0,66.5,77.8,70.1,65.6,98,81,53,30.33,30.24,8,1,9,0.00
2013-7-17,90.3,78.6,71.3,79.8,72.8,69.5,96,83,61,30.29,30.18,10,0,10,0.16
2013-7-18,92.2,79.4,68.9,80.3,73.5,68.0,98,84,57,30.21,30.08,6,0,6,0.00
2013-7-19,73.5,70.8,68.7,72.0,69.6,67.7,97,96,95,30.13,30.08,0,0,0,0.00
2013-7-21,78.9,73.7,0.0,73.5,71.2,-4.2,95,90,83,30.00,29.97,1,0,1,0.00
2013-7-22,86.8,76.4,70.2,75.6,72.2,69.3,98,88,65,30.00,29.83,12,1,12,0.04
2013-7-23,87.9,76.9,68.3,73.7,69.7,67.1,97,80,52,29.84,29.75,7,1,11,0.00
2013-7-24,86.0,75.4,66.4,72.0,67.6,63.6,98,79,48,29.94,29.77,10,1,10,0.00
2013-7-25,81.7,72.2,65.5,67.5,63.5,57.9,93,75,56,30.10,29.93,7,0,7,0.01
2013-7-26,81.3,71.6,60.6,70.6,65.4,59.4,97,82,64,30.17,30.07,8,1,8,0.00
2013-7-27,71.5,69.2,67.6,69.4,67.5,66.2,97,94,90,30.10,29.98,9,0,9,0.37
2013-7-28,83.2,73.0,66.1,71.4,67.6,65.1,98,84,58,30.05,29.96,9,0,9,0.00
2013-7-29,79.8,68.8,58.0,65.9,59.3,55.2,97,74,44,30.26,30.05,9,1,9,0.00
2013-7-30,81.3,67.8,53.7,67.0,59.9,52.5,97,78,50,30.31,30.21,7,0,7,0.00
2013-7-31,76.0,67.8,62.4,69.7,64.8,61.2,97,90,73,30.22,30.07,2,0,2,0.06
2013-8-1,83.9,72.1,64.7,71.3,66.7,62.9,97,85,60,30.07,29.90,11,1,11,0.04
2013-8-2,83.8,70.9,59.6,68.7,63.3,58.5,98,79,47,30.08,29.98,8,1,8,0.00
2013-8-3,85.7,70.4,59.5,72.7,65.1,58.2,97,85,54,30.07,29.97,8,0,8,0.00
2013-8-4,80.5,71.8,63.1,65.9,62.2,56.2,96,74,45,30.12,29.98,11,1,11,0.00
2013-8-5,78.5,68.2,56.2,66.9,61.3,54.8,97,80,57,30.17,30.07,8,0,9,0.00
2013-8-6,81.8,72.3,64.9,72.1,67.5,63.1,95,86,66,30.09,30.02,9,0,9,0.00
2013-8-7,78.6,72.4,68.9,73.6,69.8,67.2,97,92,81,30.12,30.07,9,0,9,0.02
2013-8-8,83.0,73.0,68.2,76.1,70.8,67.3,98,93,76,30.10,30.04,7,0,7,0.99
2013-8-9,87.5,77.5,68.3,78.8,72.8,67.5,98,86,65,30.06,29.99,15,1,15,0.01
2013-8-10,88.8,77.3,68.9,77.7,72.2,68.0,98,85,59,30.13,30.05,10,0,10,0.01
2013-8-11,88.0,75.7,69.6,75.3,71.7,68.7,97,88,61,30.16,30.05,11,0,11,0.51
2013-8-12,87.3,76.1,66.7,76.7,70.7,65.8,98,85,57,30.10,29.98,11,0,11,0.06
2013-8-13,81.2,72.4,67.1,74.2,69.7,65.0,98,91,76,30.00,29.84,11,0,11,0.23
2013-8-14,75.0,67.6,59.9,65.2,57.1,50.7,95,71,47,30.18,29.91,12,1,12,0.00
2013-8-15,74.8,62.3,50.5,61.0,54.8,49.2,97,79,49,30.26,30.16,8,0,8,0.00
2013-8-16,74.7,61.7,48.6,62.2,55.7,47.5,98,82,57,30.27,30.19,7,0,7,0.00
2013-8-17,70.3,61.3,53.2,62.7,58.0,52.2,98,90,67,30.31,30.25,9,0,9,0.21
2013-8-18,71.2,65.3,61.8,66.7,63.4,60.9,97,94,83,30.30,30.22,7,0,7,0.98
2013-8-19,74.8,67.5,63.3,70.2,65.4,62.3,98,93,82,30.27,30.14,7,0,7,0.09
2013-8-20,81.5,71.9,63.7,73.1,68.4,62.8,98,89,72,30.25,30.16,7,0,7,0.01
2013-8-21,81.7,73.2,64.8,74.5,69.8,63.9,98,90,71,30.27,30.15,7,0,7,0.04
2013-8-22,85.4,73.9,61.7,73.4,68.1,60.7,98,84,60,30.19,30.04,9,0,9,0.03
2013-8-23,83.0,70.5,61.5,72.2,67.0,60.1,98,89,64,30.19,30.00,14,1,14,0.21
2013-8-24,79.7,67.6,57.1,65.9,60.4,56.0,98,80,50,30.39,30.19,11,0,11,0.01
2013-8-25,80.0,66.7,56.2,66.3,59.3,54.5,98,80,44,30.47,30.35,8,0,8,0.00
2013-8-26,83.9,67.5,53.1,69.6,60.4,52.3,98,81,45,30.40,30.15,6,0,6,0.01
2013-8-27,84.7,72.2,60.2,74.7,67.0,59.1,98,85,60,30.15,30.00,13,0,13,0.00
2013-8-28,82.3,73.0,68.3,76.8,70.9,66.9,97,94,78,30.04,29.89,7,0,7,0.19
2013-8-29,86.2,75.5,67.6,76.1,71.0,66.4,98,87,64,30.08,29.89,9,1,9,0.00
2013-8-30,84.3,73.0,65.2,73.5,68.7,64.3,98,88,63,30.11,29.97,5,0,8,0.00
2013-8-31,87.5,72.1,63.4,75.6,68.4,62.5,98,89,62,29.99,29.88,16,1,20,0.30
2013-9-1,86.5,72.9,63.5,76.7,69.5,62.9,98,90,66,29.94,29.83,11,0,14,0.30
2013-9-2,87.3,74.5,63.7,74.7,68.9,62.8,98,84,57,29.93,29.82,12,1,12,0.01
2013-9-3,85.3,74.0,62.8,71.2,66.1,59.0,98,78,50,30.02,29.84,11,1,11,0.00
2013-9-4,80.9,68.1,54.8,67.4,60.2,53.6,98,78,47,30.16,30.02,8,1,8,0.00
2013-9-5,84.3,68.3,54.4,64.9,59.7,53.4,98,77,43,30.20,30.10,11,1,11,0.00
2013-9-6,76.4,65.3,55.8,62.1,58.2,54.3,97,80,50,30.28,30.17,8,0,8,0.01
2013-9-7,79.7,65.2,51.5,68.7,60.0,50.4,98,85,61,30.22,30.03,9,1,9,0.00
2013-9-8,84.8,69.6,57.1,73.4,64.4,56.0,97,85,60,30.05,29.96,7,0,7,0.01
2013-9-9,78.9,69.3,62.2,69.6,65.3,61.2,98,88,67,30.23,30.05,8,0,8,0.00
2013-9-10,87.8,73.9,63.8,77.2,69.4,62.7,98,87,62,30.28,30.18,9,0,9,0.00
2013-9-11,89.8,74.8,64.2,75.0,69.1,63.3,98,84,54,30.24,30.10,8,0,8,0.00
2013-9-12,88.4,75.4,65.0,73.6,68.4,63.2,98,81,53,30.10,29.85,8,0,10,0.00
2013-9-13,76.0,69.2,60.5,65.1,56.2,48.0,94,65,41,29.99,29.81,16,2,16,0.00
2013-9-14,71.7,58.5,47.0,56.3,49.9,45.7,97,75,49,30.23,29.99,9,1,9,0.00
2013-9-15,76.2,60.1,43.8,63.7,53.8,42.7,98,82,55,30.32,30.18,10,1,10,0.00
2013-9-16,75.6,63.1,53.6,65.2,57.5,50.9,98,83,62,30.31,30.16,12,1,12,0.00
2013-9-17,71.5,56.9,44.5,57.5,50.9,43.4,98,82,52,30.44,30.30,10,0,10,0.00
2013-9-18,68.0,56.0,44.7,58.7,51.6,43.6,98,86,65,30.41,30.26,7,0,7,0.01
2013-9-19,71.3,63.9,58.5,65.4,60.3,56.8,95,88,75,30.28,30.14,6,0,6,0.00
2013-9-20,68.2,64.7,61.4,65.8,63.0,60.0,97,94,90,30.15,30.02,2,0,5,0.36
2013-9-21,67.8,64.4,57.2,66.8,63.5,56.3,98,97,95,30.02,29.76,7,0,7,0.68
2013-9-22,72.9,62.0,50.5,60.8,55.0,49.4,98,79,54,30.00,29.82,12,1,12,0.01
2013-9-23,69.5,59.3,51.9,58.9,54.0,50.5,97,84,62,30.15,30.00,7,0,7,0.00
2013-9-24,74.2,61.5,53.3,62.3,56.2,50.7,97,84,63,30.18,30.00,7,0,7,0.00
2013-9-25,68.4,60.6,51.4,61.9,57.5,50.3,98,90,75,30.04,29.95,5,0,5,0.02
2013-9-26,75.3,63.8,53.2,62.3,57.3,52.0,98,82,51,30.14,29.98,10,0,10,0.00
2013-9-27,73.7,59.5,45.8,59.6,53.3,44.8,98,82,52,30.29,30.14,8,0,8,0.00
2013-9-28,67.8,58.8,49.3,57.3,54.8,47.9,97,87,64,30.36,30.27,7,0,7,0.00
2013-9-29,71.4,56.9,46.2,58.0,51.2,44.8,98,83,54,30.28,30.13,4,0,9,0.00
2013-9-30,76.5,60.7,48.8,61.4,54.2,47.7,98,82,50,30.18,30.05,6,0,7,0.00
2013-10-1,79.5,62.4,50.0,65.3,56.8,48.9,98,84,52,30.19,30.09,6,0,7,0.00
2013-10-2,81.0,63.5,49.2,65.1,57.1,48.0,98,82,51,30.21,30.11,9,0,9,0.01
2013-10-3,81.7,65.3,53.2,67.6,59.8,52.0,98,84,53,30.20,30.12,8,0,8,0.00
2013-10-4,85.4,67.3,54.3,69.2,61.2,53.2,98,83,48,30.19,30.10,11,0,11,0.00
2013-10-5,82.4,63.4,56.2,69.2,60.1,55.1,98,90,58,30.19,30.14,4,0,4,0.00
2013-10-7,69.0,61.9,48.9,63.9,55.7,46.8,97,81,61,30.14,29.85,9,1,20,1.75
2013-10-8,66.8,57.3,48.2,50.2,46.7,43.8,94,69,48,30.34,30.12,12,1,12,0.00
2013-10-9,64.1,55.1,45.7,50.2,47.2,44.5,96,76,55,30.36,30.25,17,2,17,0.00
2013-10-10,65.3,57.5,50.6,58.2,52.8,45.8,92,84,75,30.25,30.05,23,4,23,0.31
2013-10-11,71.8,64.0,58.9,61.9,57.5,54.4,87,80,69,30.05,29.98,16,2,16,0.00
2013-10-12,67.3,63.1,60.0,62.4,59.4,56.4,96,88,82,30.19,30.04,9,1,9,0.06
2013-10-13,66.6,62.3,59.3,62.3,59.1,56.7,97,89,82,30.33,30.18,11,1,11,0.06
2013-10-14,70.5,61.2,55.5,61.0,58.1,53.5,97,90,70,30.36,30.25,6,0,6,0.12
2013-10-15,70.6,57.1,45.1,58.6,51.9,44.0,98,85,51,30.31,30.16,9,0,9,0.00
2013-10-16,70.6,61.2,52.6,61.4,56.8,51.2,97,86,67,30.18,30.00,8,0,8,0.00
2013-10-17,66.2,61.3,56.5,63.6,59.1,52.1,98,93,76,30.01,29.85,13,0,13,0.07
2013-10-18,65.8,55.8,45.7,52.5,45.7,41.0,95,70,46,30.12,29.97,11,1,11,0.00
2013-10-19,59.2,52.2,45.1,55.2,48.8,43.9,97,89,66,30.07,29.89,10,0,10,0.00
2013-10-20,63.1,49.1,35.6,45.9,38.5,33.8,95,70,39,30.20,30.01,15,1,15,0.00
2013-10-21,66.3,48.3,32.2,51.1,42.6,31.2,97,83,55,30.26,30.06,10,1,10,0.00
2013-10-22,67.2,54.6,44.3,52.5,47.5,43.1,97,79,53,30.07,29.87,13,1,13,0.01
2013-10-23,58.6,50.0,42.0,50.2,43.1,30.4,96,79,51,30.07,29.77,21,2,21,0.09
2013-10-24,49.4,42.5,31.0,35.5,32.2,29.0,93,67,50,30.28,30.07,15,2,15,0.00
2013-10-25,49.5,39.6,28.8,30.9,28.3,25.6,94,66,41,30.46,30.27,20,2,20,0.00
2013-10-26,57.4,40.9,23.1,40.3,29.5,21.4,95,68,33,30.45,30.11,11,1,11,0.01
2013-10-27,65.3,49.1,33.4,44.8,38.1,31.4,95,69,37,30.20,30.09,20,1,20,0.00
2013-10-28,47.9,36.5,34.2,44.4,35.1,32.9,97,95,88,30.34,30.20,4,0,4,0.00
2013-10-30,70.3,62.5,52.9,61.7,58.4,51.5,95,87,70,30.33,30.20,8,0,8,0.06
2013-10-31,68.4,61.3,54.4,59.9,56.9,53.5,98,86,69,30.24,29.87,8,1,14,0.00
2013-11-1,76.5,66.3,51.8,62.4,57.7,46.8,95,75,41,29.87,29.66,22,2,22,0.06
2013-11-2,66.0,56.1,42.0,48.7,40.2,32.1,94,58,34,30.03,29.73,17,2,17,0.00
2013-11-3,56.8,48.5,34.4,39.6,35.2,31.3,90,61,42,30.49,30.02,17,2,17,0.00
2013-11-4,49.8,39.3,28.6,33.9,29.8,27.1,95,71,45,30.69,30.48,8,0,8,0.00
2013-11-5,52.6,43.8,31.2,44.3,36.2,28.3,90,75,56,30.71,30.56,5,0,5,0.00
2013-11-6,67.1,52.7,45.4,52.0,47.5,43.4,94,84,58,30.56,30.18,10,1,10,0.00
2013-11-7,61.5,48.8,42.1,54.9,40.5,25.9,97,75,49,30.23,30.04,17,3,21,0.01
2013-11-8,49.9,40.0,27.1,31.0,26.3,23.6,89,60,36,30.44,30.23,21,3,21,0.00
2013-11-9,55.9,37.4,23.9,32.0,27.7,22.1,94,72,37,30.47,30.23,12,1,12,0.00
2013-11-10,64.7,49.8,29.3,38.7,29.6,20.9,92,51,19,30.37,30.13,25,4,25,0.00
2013-11-11,58.7,42.5,26.2,33.4,28.6,23.1,89,62,29,30.42,30.18,11,1,11,0.00
2013-11-12,55.1,41.6,30.3,38.4,25.4,13.1,86,54,33,30.54,30.08,19,4,19,0.00
2013-11-13,43.2,32.4,23.9,19.1,16.3,12.3,79,53,30,30.65,30.52,13,2,13,0.00
2013-11-14,60.1,37.4,22.4,25.3,19.5,10.9,83,57,17,30.56,30.38,10,1,10,0.00
2013-11-15,59.9,41.9,23.0,48.7,30.9,19.9,96,71,26,30.42,30.28,9,0,9,0.48
2013-11-16,54.5,50.8,47.1,51.9,49.6,46.3,97,96,90,30.36,30.30,3,0,5,0.08
2013-11-17,58.4,54.9,51.9,57.6,54.2,51.1,98,98,97,30.31,29.89,7,0,7,0.16
2013-11-18,64.5,59.0,48.8,60.0,37.9,25.5,98,48,27,30.07,29.83,20,4,20,0.13
2013-11-19,49.4,43.0,33.4,28.6,26.8,24.7,79,53,41,30.43,30.05,19,3,19,0.00
2013-11-20,47.1,37.4,29.7,29.1,27.1,24.3,89,68,43,30.60,30.42,10,1,10,0.00
2013-11-21,49.4,44.2,39.6,42.7,37.2,28.4,86,76,65,30.63,30.50,5,0,5,0.00
2013-11-22,66.8,54.6,44.0,57.3,49.5,41.3,94,83,67,30.50,30.13,9,0,9,0.00
2013-11-23,59.4,47.4,33.1,50.3,31.3,13.7,73,55,30,30.33,30.13,23,5,23,0.00
2013-11-24,33.0,26.6,19.1,14.1,5.7,0.4,69,41,27,30.66,30.32,24,4,24,0.00
2013-11-25,35.7,27.1,17.0,21.8,12.9,6.1,80,56,36,30.67,30.47,9,1,9,0.00
2013-11-26,44.7,35.7,30.5,43.1,33.1,19.4,97,91,57,30.49,29.71,12,0,12,2.05
2013-11-27,44.9,35.5,26.1,42.7,27.7,12.1,97,74,54,30.25,29.64,25,5,25,0.07
2013-11-28,40.3,29.1,21.5,23.3,17.4,12.6,92,63,38,30.57,30.24,25,2,25,0.00
2013-11-29,45.5,29.9,19.0,24.7,21.2,16.5,92,73,42,30.79,30.56,11,1,11,0.00
2013-11-30,39.7,28.0,18.3,24.9,21.5,16.2,94,78,53,30.79,30.49,8,0,8,0.00
2013-12-1,55.7,32.5,17.4,33.2,24.2,15.1,95,76,34,30.49,30.14,9,0,9,0.00
2013-12-2,52.6,38.3,25.2,40.0,33.0,23.4,95,82,57,30.14,29.94,5,0,5,0.00
2013-12-3,57.7,42.2,30.5,43.8,37.2,28.7,96,84,57,30.08,29.96,10,0,10,0.00
2013-12-4,59.8,50.9,37.5,53.4,47.2,35.9,96,88,72,30.16,30.06,7,0,7,0.00
2013-12-5,63.5,57.8,52.6,61.2,55.7,50.6,97,93,87,30.16,30.03,7,0,7,0.06
2013-12-6,71.5,64.1,50.2,65.8,61.0,48.0,98,90,72,30.12,29.92,11,1,11,1.02
2013-12-7,50.1,43.1,38.0,48.1,36.9,29.9,94,79,69,30.58,30.10,11,2,11,0.09
2013-12-8,38.0,31.3,28.5,30.5,27.9,25.1,95,87,71,30.60,30.38,10,1,10,0.05
2013-12-9,46.5,37.0,31.3,43.6,35.5,29.8,97,94,89,30.38,30.15,5,0,5,0.58
2013-12-10,44.3,37.4,32.2,41.0,30.3,17.9,97,77,53,30.37,30.06,13,2,19,0.35
2013-12-11,48.0,34.0,23.8,27.0,20.9,16.5,89,61,33,30.52,30.35,13,1,13,0.00
2013-12-12,38.1,31.3,21.7,21.1,14.0,6.6,75,50,29,30.52,30.38,20,3,20,0.00
2013-12-13,48.1,33.9,21.6,27.7,19.0,12.0,85,57,31,30.46,30.34,14,1,14,0.00
2013-12-14,38.9,35.3,31.6,34.0,32.2,26.8,96,89,73,30.40,29.86,9,0,9,0.36
2013-12-15,45.9,38.6,33.8,38.4,30.7,24.5,97,74,58,30.12,29.78,20,3,20,0.00
2013-12-16,46.5,37.0,29.0,34.9,29.5,25.3,93,75,58,30.23,30.11,8,1,12,0.00
2013-12-17,56.7,38.1,25.7,38.9,30.4,23.7,96,77,45,30.20,29.99,28,3,28,0.07
2013-12-18,44.6,34.7,25.7,24.1,21.0,18.0,86,59,36,30.36,30.09,20,2,21,0.00
2013-12-19,65.8,41.3,23.7,34.0,27.1,20.5,90,63,23,30.34,30.25,16,1,16,0.00
2013-12-20,61.7,42.3,30.1,40.2,33.7,27.5,91,74,40,30.26,30.15,5,0,7,0.00
2013-12-21,66.9,53.5,37.3,60.8,48.5,35.2,95,84,69,30.18,30.02,15,2,15,0.00
2013-12-22,66.8,61.5,57.1,63.5,58.9,54.9,98,91,68,30.11,29.98,20,2,20,0.72
2013-12-23,61.1,51.8,36.2,60.5,46.8,26.9,98,83,67,30.29,30.01,21,2,21,0.80
2013-12-24,39.2,32.0,22.7,27.3,19.6,7.4,72,60,44,30.58,30.28,14,4,25,0.00
2013-12-25,34.8,24.1,14.4,18.2,12.7,7.6,87,64,38,30.66,30.48,10,1,10,0.00
2013-12-26,47.7,30.4,17.3,27.6,20.7,14.6,90,71,39,30.51,30.35,14,1,14,0.00
2013-12-27,52.1,31.9,20.4,27.5,21.2,17.6,91,70,29,30.57,30.45,10,1,10,0.00
2013-12-28,56.8,36.2,19.2,38.0,26.0,17.0,94,71,28,30.50,30.26,9,0,11,0.08
2013-12-29,52.3,44.4,38.9,47.1,40.3,37.7,97,86,69,30.26,29.75,12,2,17,1.09
2013-12-30,47.5,41.6,34.8,39.1,32.7,27.2,89,71,60,30.24,29.98,13,2,13,0.00
2013-12-31,45.3,34.9,23.8,29.8,22.8,17.2,92,64,33,30.45,30.21,14,2,22,0.00
2014-1-1,48.6,32.4,21.3,29.7,23.4,19.1,93,72,37,30.49,30.22,11,1,11,0.00
2014-1-2,38.8,31.8,23.8,35.9,28.7,20.2,95,89,65,30.22,29.73,21,1,21,0.15